createdAt,value
2023-03-16T00:00:02.022Z,4.20
2023-03-16T00:04:57.095Z,4.10
2023-03-16T00:09:49.836Z,5.32
2023-03-16T00:14:44.647Z,4.35
2023-03-16T00:19:39.041Z,3.92
2023-03-16T00:24:33.084Z,5.60
2023-03-16T00:29:26.231Z,5.00
2023-03-16T00:34:20.084Z,4.53
2023-03-16T00:39:15.652Z,4.32
2023-03-16T00:44:09.805Z,4.30
2023-03-16T00:49:03.506Z,5.40
2023-03-16T00:53:56.800Z,4.75
2023-03-16T00:58:50.310Z,4.05
2023-03-16T01:03:43.420Z,4.93
2023-03-16T01:08:36.683Z,4.60
2023-03-16T01:13:30.030Z,8.15
2023-03-16T01:18:24.036Z,10.52
2023-03-16T01:23:18.566Z,12.52
2023-03-16T01:28:13.825Z,9.25
2023-03-16T01:33:07.759Z,7.07
2023-03-16T01:38:01.201Z,8.68
2023-03-16T01:43:06.079Z,9.75
2023-03-16T01:48:05.381Z,8.60
2023-03-16T01:52:58.738Z,9.43
2023-03-16T01:57:51.895Z,7.80
2023-03-16T02:02:48.987Z,7.50
2023-03-16T02:07:52.599Z,9.10
2023-03-16T02:12:46.673Z,7.47
2023-03-16T02:17:41.286Z,8.18
2023-03-16T02:22:40.449Z,7.85
2023-03-16T02:27:39.689Z,8.93
2023-03-16T02:32:33.433Z,8.33
2023-03-16T02:37:28.108Z,8.25
2023-03-16T02:42:24.950Z,7.93
2023-03-16T02:47:42.363Z,8.98
2023-03-16T02:52:36.838Z,7.88
2023-03-16T02:57:32.528Z,9.00
2023-03-16T03:02:30.743Z,7.70
2023-03-16T03:07:33.006Z,7.70
2023-03-16T03:12:29.894Z,7.25
2023-03-16T03:17:30.462Z,6.53
2023-03-16T03:22:23.578Z,5.20
2023-03-16T03:27:16.192Z,5.07
2023-03-16T03:32:10.274Z,5.53
2023-03-16T03:37:03.952Z,4.22
2023-03-16T03:41:58.312Z,4.18
2023-03-16T03:46:51.781Z,4.50
2023-03-16T03:51:45.817Z,3.83
2023-03-16T03:56:43.989Z,3.88
2023-03-16T04:01:41.430Z,4.23
2023-03-16T04:06:35.078Z,3.22
2023-03-16T04:11:29.163Z,3.88
2023-03-16T04:16:22.312Z,5.00
2023-03-16T04:21:19.668Z,3.75
2023-03-16T04:26:13.776Z,3.72
2023-03-16T04:31:11.140Z,3.60
2023-03-16T04:36:09.282Z,3.55
2023-03-16T04:41:04.852Z,3.47
2023-03-16T04:46:03.360Z,3.70
2023-03-16T04:50:58.379Z,4.38
2023-03-16T04:55:54.806Z,3.75
2023-03-16T05:00:49.111Z,3.88
2023-03-16T05:05:48.891Z,3.80
2023-03-16T05:10:42.525Z,3.97
2023-03-16T05:15:35.852Z,4.82
2023-03-16T05:20:40.475Z,4.93
2023-03-16T05:25:36.501Z,5.45
2023-03-16T05:30:32.693Z,4.95
2023-03-16T05:35:31.719Z,5.30
2023-03-16T05:40:29.653Z,5.75
2023-03-16T05:45:39.028Z,5.30
2023-03-16T05:50:42.128Z,5.97
2023-03-16T05:55:35.889Z,5.32
2023-03-16T06:00:31.113Z,5.03
2023-03-16T06:05:35.734Z,4.47
2023-03-16T06:10:30.440Z,5.07
2023-03-16T06:15:26.611Z,4.82
2023-03-16T06:20:22.423Z,4.73
2023-03-16T06:25:16.383Z,4.57
2023-03-16T06:30:14.739Z,4.38
2023-03-16T06:35:08.276Z,4.03
2023-03-16T06:40:01.611Z,4.50
2023-03-16T06:44:55.333Z,4.85
2023-03-16T06:49:49.508Z,7.63
2023-03-16T06:54:46.955Z,7.32
2023-03-16T06:59:41.955Z,9.13
2023-03-16T07:04:35.759Z,7.75
2023-03-16T07:09:29.323Z,21.75
2023-03-16T07:14:24.132Z,13.02
2023-03-16T07:19:18.850Z,9.95
2023-03-16T07:24:13.395Z,7.43
2023-03-16T07:29:06.779Z,11.05
2023-03-16T07:34:02.859Z,8.45
2023-03-16T07:39:07.048Z,6.85
2023-03-16T07:44:01.269Z,6.80
2023-03-16T07:48:54.016Z,6.90
2023-03-16T07:53:48.069Z,6.85
2023-03-16T07:58:45.924Z,6.87
2023-03-16T08:03:39.664Z,5.10
2023-03-16T08:08:33.244Z,5.50
2023-03-16T08:13:27.485Z,4.75
2023-03-16T08:18:21.889Z,5.07
2023-03-16T08:23:15.949Z,5.32
2023-03-16T08:28:09.719Z,4.88
2023-03-16T08:33:05.252Z,4.88
2023-03-16T08:37:58.268Z,7.90
2023-03-16T08:42:51.856Z,7.05
2023-03-16T08:47:46.246Z,7.45
2023-03-16T08:52:41.877Z,4.68
2023-03-16T08:57:35.586Z,3.55
2023-03-16T09:02:29.688Z,2.42
2023-03-16T09:07:23.139Z,3.17
2023-03-16T09:12:17.001Z,4.05
2023-03-16T09:17:12.102Z,3.50
2023-03-16T09:22:04.929Z,3.53
2023-03-16T09:26:58.871Z,4.82
2023-03-16T09:31:52.391Z,3.50
2023-03-16T09:36:45.478Z,2.90
2023-03-16T09:42:12.457Z,2.97
2023-03-16T09:47:07.153Z,2.60
2023-03-16T09:52:19.081Z,3.08
2023-03-16T09:57:23.533Z,2.15
2023-03-16T10:02:41.300Z,1.95
2023-03-16T10:12:32.711Z,1.77
2023-03-16T10:17:43.280Z,2.50
2023-03-16T10:22:43.493Z,1.67
2023-03-16T10:27:41.221Z,1.50
2023-03-16T10:32:37.548Z,1.42
2023-03-16T10:37:31.735Z,1.17
2023-03-16T10:42:27.607Z,1.30
2023-03-16T10:47:24.902Z,1.00
2023-03-16T10:52:27.097Z,0.80
2023-03-16T10:57:36.578Z,0.65
2023-03-16T11:02:34.788Z,0.70
2023-03-16T11:07:28.491Z,0.52
2023-03-16T11:12:29.138Z,0.80
2023-03-16T11:17:44.591Z,0.47
2023-03-16T11:22:38.740Z,0.60
2023-03-16T11:27:49.867Z,1.15
2023-03-16T11:33:07.115Z,0.50
2023-03-16T11:38:18.690Z,1.00
2023-03-16T11:43:27.149Z,0.73
2023-03-16T11:48:22.306Z,1.83
2023-03-16T11:53:37.192Z,0.80
2023-03-16T11:58:38.764Z,2.83
2023-03-16T12:03:40.666Z,1.70
2023-03-16T12:08:58.070Z,2.30
2023-03-16T12:14:05.813Z,2.33
2023-03-16T12:19:07.463Z,1.65
2023-03-16T12:24:07.364Z,2.28
2023-03-16T12:29:03.313Z,2.00
2023-03-16T12:34:02.343Z,1.70
2023-03-16T12:39:35.570Z,2.85
2023-03-16T12:44:54.915Z,1.65
2023-03-16T12:49:49.654Z,1.98
2023-03-16T12:54:53.861Z,1.83
2023-03-16T12:59:48.345Z,1.40
2023-03-16T13:04:44.650Z,2.35
2023-03-16T13:09:43.065Z,1.63
2023-03-16T13:14:44.968Z,1.70
2023-03-16T13:19:38.650Z,1.60
2023-03-16T13:24:40.945Z,1.40
2023-03-16T13:29:33.978Z,3.50
2023-03-16T13:34:35.482Z,1.63
2023-03-16T13:39:29.771Z,1.60
2023-03-16T13:44:24.155Z,1.80
2023-03-16T13:49:18.972Z,1.77
2023-03-16T13:54:22.251Z,1.95
2023-03-16T13:59:14.262Z,1.65
2023-03-16T14:04:16.357Z,1.52
2023-03-16T14:09:16.073Z,1.60
2023-03-16T14:14:27.271Z,1.77
2023-03-16T14:19:25.874Z,2.08
2023-03-16T14:24:33.926Z,1.80
2023-03-16T14:29:31.250Z,2.00
2023-03-16T14:34:43.018Z,2.00
2023-03-16T14:39:36.178Z,2.05
2023-03-16T14:44:32.861Z,1.70
2023-03-16T14:49:52.197Z,2.45
2023-03-16T14:54:46.021Z,2.38
2023-03-16T14:59:38.892Z,1.83
2023-03-16T15:04:34.855Z,2.10
2023-03-16T15:09:36.409Z,2.20
2023-03-16T15:14:48.903Z,2.15
2023-03-16T15:19:42.296Z,2.17
2023-03-16T15:24:35.871Z,2.65
2023-03-16T15:29:28.762Z,2.00
2023-03-16T15:34:23.320Z,2.10
2023-03-16T15:39:22.411Z,2.92
2023-03-16T15:44:16.687Z,2.55
2023-03-16T15:49:10.022Z,2.30
2023-03-16T15:54:09.238Z,2.33
2023-03-16T15:59:05.026Z,2.10
2023-03-16T16:03:58.164Z,2.30
2023-03-16T16:08:51.620Z,2.70
2023-03-16T16:13:45.388Z,1.65
2023-03-16T16:18:39.927Z,1.67
2023-03-16T16:23:33.243Z,3.80
2023-03-16T16:28:30.183Z,2.08
2023-03-16T16:33:31.877Z,1.98
2023-03-16T16:38:26.012Z,2.58
2023-03-16T16:44:05.993Z,2.90
2023-03-16T16:49:05.737Z,2.30
2023-03-16T16:54:02.567Z,1.95
2023-03-16T16:58:55.905Z,1.90
2023-03-16T17:03:50.310Z,1.80
2023-03-16T17:08:42.549Z,1.50
2023-03-16T17:13:40.874Z,2.00
2023-03-16T17:18:35.114Z,2.10
2023-03-16T17:23:29.380Z,2.00
2023-03-16T17:28:23.964Z,1.98
2023-03-16T17:33:19.786Z,1.92
2023-03-16T17:38:33.432Z,1.80
2023-03-16T17:43:28.241Z,2.13
2023-03-16T17:48:23.130Z,2.78
2023-03-16T17:53:18.094Z,2.85
2023-03-16T17:58:27.712Z,3.33
2023-03-16T18:03:21.462Z,4.25
2023-03-16T18:08:22.090Z,4.72
2023-03-16T18:13:27.500Z,9.35
2023-03-16T18:18:23.151Z,9.77
2023-03-16T18:23:18.738Z,5.20
2023-03-16T18:28:12.151Z,4.13
2023-03-16T18:33:07.116Z,6.07
2023-03-16T18:37:59.499Z,6.10
2023-03-16T18:42:55.562Z,6.32
2023-03-16T18:47:52.010Z,14.13
2023-03-16T18:52:45.049Z,11.02
2023-03-16T18:57:39.381Z,9.52
2023-03-16T19:02:39.680Z,7.82
2023-03-16T19:07:35.960Z,6.30
2023-03-16T19:12:29.573Z,4.82
2023-03-16T19:17:23.188Z,6.25
2023-03-16T19:22:18.784Z,5.72
2023-03-16T19:27:23.152Z,4.93
2023-03-16T19:32:20.748Z,3.97
2023-03-16T19:37:15.829Z,3.88
2023-03-16T19:42:42.841Z,4.80
2023-03-16T19:47:36.498Z,5.25
2023-03-16T19:52:31.382Z,6.65
2023-03-16T19:57:25.428Z,7.88
2023-03-16T20:02:28.072Z,6.50
2023-03-16T20:07:22.183Z,6.07
2023-03-16T20:12:21.893Z,5.15
2023-03-16T20:17:23.727Z,8.65
2023-03-16T20:22:20.997Z,10.95
2023-03-16T20:27:13.929Z,7.57
2023-03-16T20:32:36.421Z,6.78
2023-03-16T20:37:32.586Z,7.22
2023-03-16T20:42:31.606Z,8.43
2023-03-16T20:52:19.536Z,7.03
2023-03-16T20:57:23.956Z,6.78
2023-03-16T21:02:30.044Z,6.68
2023-03-16T21:07:23.376Z,9.57
2023-03-16T21:12:29.400Z,8.93
2023-03-16T21:17:26.659Z,11.80
2023-03-16T21:22:27.404Z,9.63
2023-03-16T21:27:40.453Z,7.97
2023-03-16T21:32:35.478Z,7.43
2023-03-16T21:37:28.614Z,8.55
2023-03-16T21:42:21.765Z,7.13
2023-03-16T21:47:29.703Z,8.20
2023-03-16T21:52:28.418Z,6.97
2023-03-16T21:57:22.842Z,8.82
2023-03-16T22:02:24.038Z,7.88
2023-03-16T22:07:18.165Z,7.90
2023-03-16T22:12:13.001Z,8.35
2023-03-16T22:17:06.333Z,8.50
2023-03-16T22:21:59.163Z,8.07
2023-03-16T22:26:53.520Z,9.10
2023-03-16T22:31:47.979Z,8.45
2023-03-16T22:36:41.873Z,8.63
2023-03-16T22:41:35.569Z,8.40
2023-03-16T22:46:31.381Z,7.22
2023-03-16T22:51:35.760Z,7.78
2023-03-16T22:56:30.317Z,6.93
2023-03-16T23:01:35.037Z,6.75
2023-03-16T23:06:30.239Z,6.07
2023-03-16T23:11:28.351Z,6.75
2023-03-16T23:16:23.985Z,6.85
2023-03-16T23:21:19.334Z,7.43
2023-03-16T23:26:24.231Z,8.70
2023-03-16T23:31:17.543Z,7.07
2023-03-16T23:36:19.692Z,7.82
2023-03-16T23:41:13.762Z,7.53
2023-03-16T23:46:06.156Z,6.07
2023-03-16T23:50:59.540Z,6.47
2023-03-16T23:55:51.667Z,7.47
